Portada
METAR-TAF:

METAR-TAF

Aeropuertos :

Edgar County Airport

Paris, Illinois, Estados Unidos

latitud: 39-42-01N, longitud: 087-40-11W, altitud: 199 m

Observación

El informe se hizo hace 22 minutos, a las 20:35 UTC
Viento 7 kt del sur
Temperatura 33°C
Humedad 44%
Presión 1023 hPa
Visibilidad: 16.1 km
Nubes dispersas a una altura de 6000 ft
Nubes dispersas a una altura de 8000 ft

METAR: KPRG 192035Z AUTO 18007KT 10SM SCT060 SCT080 33/19 A3021 RMK AO2 T03250191

Hora: 15:57 (20:57 UTC)


TAF: falta

Observaciones y pronósticos meteorológicos de más de 4000 aeropuertos (mensajes METAR y TAF).

Los puntos amarillos y rojos representan las estaciones disponibles.

Ponga el ratón en el punto deseado para ver el nombre de la estación.

Haga clic para ver las observaciones y los pronósticos meteorológicos.

Para cambiar el mapa : haga clic en los botones verdes con una cruz de color negro para hacer un zoom, en el botón verde con un guión para alejar o en las flechas verdes para mapas adyacentes.


METAR-TAF: